sensor_id;sensor_type;location;lat;lon;timestamp;P1;durP1;ratioP1;P2;durP2;ratioP2
10403;SDS011;5248;47.374;8.486;2022-11-20T00:00:24;3.30;;;2.10;;
10403;SDS011;5248;47.374;8.486;2022-11-20T00:02:51;2.60;;;2.40;;
10403;SDS011;5248;47.374;8.486;2022-11-20T00:05:18;2.37;;;2.17;;
10403;SDS011;5248;47.374;8.486;2022-11-20T00:07:49;3.30;;;2.30;;
10403;SDS011;5248;47.374;8.486;2022-11-20T00:10:16;3.13;;;2.63;;
10403;SDS011;5248;47.374;8.486;2022-11-20T00:12:43;2.33;;;2.13;;
10403;SDS011;5248;47.374;8.486;2022-11-20T00:15:11;3.17;;;2.17;;
10403;SDS011;5248;47.374;8.486;2022-11-20T00:17:38;3.17;;;1.70;;
10403;SDS011;5248;47.374;8.486;2022-11-20T00:20:05;4.30;;;2.10;;
10403;SDS011;5248;47.374;8.486;2022-11-20T00:22:35;2.30;;;2.10;;
10403;SDS011;5248;47.374;8.486;2022-11-20T00:25:07;2.10;;;2.00;;
10403;SDS011;5248;47.374;8.486;2022-11-20T00:27:34;3.37;;;2.30;;
10403;SDS011;5248;47.374;8.486;2022-11-20T00:30:02;2.37;;;2.13;;
10403;SDS011;5248;47.374;8.486;2022-11-20T00:32:30;3.93;;;2.33;;
10403;SDS011;5248;47.374;8.486;2022-11-20T00:34:57;2.47;;;2.20;;
10403;SDS011;5248;47.374;8.486;2022-11-20T00:37:25;2.60;;;2.40;;
10403;SDS011;5248;47.374;8.486;2022-11-20T00:39:53;2.40;;;2.23;;
10403;SDS011;5248;47.374;8.486;2022-11-20T00:42:21;2.60;;;2.13;;
10403;SDS011;5248;47.374;8.486;2022-11-20T00:44:49;3.47;;;2.20;;
10403;SDS011;5248;47.374;8.486;2022-11-20T00:47:16;3.23;;;2.20;;
10403;SDS011;5248;47.374;8.486;2022-11-20T00:49:44;2.67;;;2.30;;
10403;SDS011;5248;47.374;8.486;2022-11-20T00:52:11;3.07;;;2.27;;
10403;SDS011;5248;47.374;8.486;2022-11-20T00:54:38;2.83;;;2.30;;
10403;SDS011;5248;47.374;8.486;2022-11-20T00:57:05;3.37;;;1.90;;
10403;SDS011;5248;47.374;8.486;2022-11-20T00:59:34;2.43;;;2.23;;
10403;SDS011;5248;47.374;8.486;2022-11-20T01:02:03;2.20;;;2.10;;
10403;SDS011;5248;47.374;8.486;2022-11-20T01:04:29;6.23;;;2.77;;
10403;SDS011;5248;47.374;8.486;2022-11-20T01:06:57;2.43;;;2.23;;
10403;SDS011;5248;47.374;8.486;2022-11-20T01:09:25;2.63;;;2.47;;
10403;SDS011;5248;47.374;8.486;2022-11-20T01:11:52;2.37;;;2.13;;
10403;SDS011;5248;47.374;8.486;2022-11-20T01:14:19;3.60;;;2.50;;
10403;SDS011;5248;47.374;8.486;2022-11-20T01:16:47;3.50;;;2.47;;
10403;SDS011;5248;47.374;8.486;2022-11-20T01:19:16;2.20;;;2.00;;
10403;SDS011;5248;47.374;8.486;2022-11-20T01:21:44;2.40;;;2.20;;
10403;SDS011;5248;47.374;8.486;2022-11-20T01:24:14;4.00;;;1.90;;
10403;SDS011;5248;47.374;8.486;2022-11-20T01:26:42;2.30;;;2.17;;
10403;SDS011;5248;47.374;8.486;2022-11-20T01:29:12;2.70;;;1.80;;
10403;SDS011;5248;47.374;8.486;2022-11-20T01:31:40;2.33;;;2.10;;
10403;SDS011;5248;47.374;8.486;2022-11-20T01:34:09;2.47;;;2.27;;
10403;SDS011;5248;47.374;8.486;2022-11-20T01:36:37;3.03;;;2.63;;
10403;SDS011;5248;47.374;8.486;2022-11-20T01:39:04;2.63;;;2.43;;
10403;SDS011;5248;47.374;8.486;2022-11-20T01:41:34;3.87;;;3.00;;
10403;SDS011;5248;47.374;8.486;2022-11-20T01:44:19;3.23;;;2.90;;
10403;SDS011;5248;47.374;8.486;2022-11-20T01:46:49;3.10;;;2.83;;
10403;SDS011;5248;47.374;8.486;2022-11-20T01:49:21;3.20;;;2.90;;
10403;SDS011;5248;47.374;8.486;2022-11-20T01:51:50;3.10;;;2.90;;
10403;SDS011;5248;47.374;8.486;2022-11-20T01:54:19;3.47;;;2.87;;
10403;SDS011;5248;47.374;8.486;2022-11-20T01:56:50;3.17;;;2.97;;
10403;SDS011;5248;47.374;8.486;2022-11-20T01:59:18;4.53;;;3.13;;
10403;SDS011;5248;47.374;8.486;2022-11-20T02:01:45;3.17;;;2.87;;
10403;SDS011;5248;47.374;8.486;2022-11-20T02:04:12;5.47;;;2.60;;
10403;SDS011;5248;47.374;8.486;2022-11-20T02:06:40;3.00;;;2.80;;
10403;SDS011;5248;47.374;8.486;2022-11-20T02:09:10;3.37;;;2.80;;
10403;SDS011;5248;47.374;8.486;2022-11-20T02:11:37;3.00;;;2.80;;
10403;SDS011;5248;47.374;8.486;2022-11-20T02:14:06;3.80;;;2.50;;
10403;SDS011;5248;47.374;8.486;2022-11-20T02:16:34;3.53;;;2.40;;
10403;SDS011;5248;47.374;8.486;2022-11-20T02:19:04;2.33;;;2.13;;
10403;SDS011;5248;47.374;8.486;2022-11-20T02:21:34;2.30;;;2.10;;
10403;SDS011;5248;47.374;8.486;2022-11-20T02:24:06;2.43;;;2.23;;
10403;SDS011;5248;47.374;8.486;2022-11-20T02:26:34;2.17;;;1.97;;
10403;SDS011;5248;47.374;8.486;2022-11-20T02:29:06;3.27;;;1.87;;
10403;SDS011;5248;47.374;8.486;2022-11-20T02:31:35;2.13;;;1.73;;
10403;SDS011;5248;47.374;8.486;2022-11-20T02:34:03;3.87;;;1.80;;
10403;SDS011;5248;47.374;8.486;2022-11-20T02:36:30;1.67;;;1.57;;
10403;SDS011;5248;47.374;8.486;2022-11-20T02:38:59;2.40;;;2.13;;
10403;SDS011;5248;47.374;8.486;2022-11-20T02:41:31;3.43;;;1.97;;
10403;SDS011;5248;47.374;8.486;2022-11-20T02:43:58;2.30;;;2.10;;
10403;SDS011;5248;47.374;8.486;2022-11-20T02:46:25;3.53;;;2.50;;
10403;SDS011;5248;47.374;8.486;2022-11-20T02:48:53;2.57;;;2.30;;
10403;SDS011;5248;47.374;8.486;2022-11-20T02:51:20;2.30;;;2.10;;
10403;SDS011;5248;47.374;8.486;2022-11-20T02:53:46;3.13;;;2.53;;
10403;SDS011;5248;47.374;8.486;2022-11-20T02:56:13;3.53;;;2.27;;
10403;SDS011;5248;47.374;8.486;2022-11-20T02:58:42;2.30;;;2.10;;
10403;SDS011;5248;47.374;8.486;2022-11-20T03:01:08;2.13;;;1.90;;
10403;SDS011;5248;47.374;8.486;2022-11-20T03:03:35;3.30;;;2.60;;
10403;SDS011;5248;47.374;8.486;2022-11-20T03:06:02;2.47;;;2.23;;
10403;SDS011;5248;47.374;8.486;2022-11-20T03:08:30;2.30;;;2.10;;
10403;SDS011;5248;47.374;8.486;2022-11-20T03:11:01;2.80;;;2.60;;
10403;SDS011;5248;47.374;8.486;2022-11-20T03:13:29;3.63;;;2.27;;
10403;SDS011;5248;47.374;8.486;2022-11-20T03:15:57;2.20;;;2.00;;
10403;SDS011;5248;47.374;8.486;2022-11-20T03:18:27;3.37;;;2.20;;
10403;SDS011;5248;47.374;8.486;2022-11-20T03:20:56;2.10;;;1.90;;
10403;SDS011;5248;47.374;8.486;2022-11-20T03:23:24;3.43;;;2.03;;
10403;SDS011;5248;47.374;8.486;2022-11-20T03:25:50;3.77;;;2.20;;
10403;SDS011;5248;47.374;8.486;2022-11-20T03:28:17;2.20;;;2.10;;
10403;SDS011;5248;47.374;8.486;2022-11-20T03:30:44;2.60;;;2.10;;
10403;SDS011;5248;47.374;8.486;2022-11-20T03:33:12;2.57;;;2.10;;
10403;SDS011;5248;47.374;8.486;2022-11-20T03:35:43;2.10;;;2.00;;
10403;SDS011;5248;47.374;8.486;2022-11-20T03:38:09;2.10;;;2.00;;
10403;SDS011;5248;47.374;8.486;2022-11-20T03:40:36;2.70;;;2.30;;
10403;SDS011;5248;47.374;8.486;2022-11-20T03:43:03;3.03;;;2.13;;
10403;SDS011;5248;47.374;8.486;2022-11-20T03:45:30;2.30;;;2.03;;
10403;SDS011;5248;47.374;8.486;2022-11-20T03:47:57;2.43;;;2.23;;
10403;SDS011;5248;47.374;8.486;2022-11-20T03:50:28;2.10;;;2.00;;
10403;SDS011;5248;47.374;8.486;2022-11-20T03:52:55;3.17;;;2.20;;
10403;SDS011;5248;47.374;8.486;2022-11-20T03:55:23;2.13;;;1.90;;
10403;SDS011;5248;47.374;8.486;2022-11-20T03:57:50;2.13;;;1.93;;
10403;SDS011;5248;47.374;8.486;2022-11-20T04:00:17;2.07;;;1.93;;
10403;SDS011;5248;47.374;8.486;2022-11-20T04:02:44;2.43;;;2.23;;
10403;SDS011;5248;47.374;8.486;2022-11-20T04:05:10;2.27;;;2.17;;
10403;SDS011;5248;47.374;8.486;2022-11-20T04:07:39;2.50;;;2.30;;
10403;SDS011;5248;47.374;8.486;2022-11-20T04:10:06;2.33;;;2.07;;
10403;SDS011;5248;47.374;8.486;2022-11-20T04:12:33;2.23;;;2.03;;
10403;SDS011;5248;47.374;8.486;2022-11-20T04:15:00;2.37;;;2.17;;
10403;SDS011;5248;47.374;8.486;2022-11-20T04:17:27;2.23;;;2.00;;
10403;SDS011;5248;47.374;8.486;2022-11-20T04:19:54;2.40;;;2.20;;
10403;SDS011;5248;47.374;8.486;2022-11-20T04:22:21;2.27;;;2.10;;
10403;SDS011;5248;47.374;8.486;2022-11-20T04:24:49;2.10;;;1.90;;
10403;SDS011;5248;47.374;8.486;2022-11-20T04:27:16;2.67;;;1.90;;
10403;SDS011;5248;47.374;8.486;2022-11-20T04:29:43;2.70;;;2.50;;
10403;SDS011;5248;47.374;8.486;2022-11-20T04:32:11;2.47;;;2.27;;
10403;SDS011;5248;47.374;8.486;2022-11-20T04:34:37;2.60;;;2.00;;
10403;SDS011;5248;47.374;8.486;2022-11-20T04:37:04;2.20;;;1.97;;
10403;SDS011;5248;47.374;8.486;2022-11-20T04:39:32;2.40;;;2.10;;
10403;SDS011;5248;47.374;8.486;2022-11-20T04:42:02;2.03;;;1.70;;
10403;SDS011;5248;47.374;8.486;2022-11-20T04:44:46;3.63;;;2.10;;
10403;SDS011;5248;47.374;8.486;2022-11-20T04:47:13;1.70;;;1.60;;
10403;SDS011;5248;47.374;8.486;2022-11-20T04:49:40;3.67;;;1.90;;
10403;SDS011;5248;47.374;8.486;2022-11-20T04:52:06;1.77;;;1.67;;
10403;SDS011;5248;47.374;8.486;2022-11-20T04:54:34;2.00;;;1.73;;
10403;SDS011;5248;47.374;8.486;2022-11-20T04:57:03;2.37;;;2.00;;
10403;SDS011;5248;47.374;8.486;2022-11-20T04:59:30;2.53;;;1.90;;
10403;SDS011;5248;47.374;8.486;2022-11-20T05:01:56;2.17;;;1.67;;
10403;SDS011;5248;47.374;8.486;2022-11-20T05:04:23;2.37;;;2.07;;
10403;SDS011;5248;47.374;8.486;2022-11-20T05:06:51;2.03;;;1.80;;
10403;SDS011;5248;47.374;8.486;2022-11-20T05:09:18;2.30;;;2.10;;
10403;SDS011;5248;47.374;8.486;2022-11-20T05:11:45;3.33;;;2.23;;
10403;SDS011;5248;47.374;8.486;2022-11-20T05:14:13;2.00;;;1.77;;
10403;SDS011;5248;47.374;8.486;2022-11-20T05:16:40;2.63;;;1.80;;
10403;SDS011;5248;47.374;8.486;2022-11-20T05:19:09;2.43;;;2.00;;
10403;SDS011;5248;47.374;8.486;2022-11-20T05:21:35;2.00;;;1.90;;
10403;SDS011;5248;47.374;8.486;2022-11-20T05:24:02;2.23;;;2.00;;
10403;SDS011;5248;47.374;8.486;2022-11-20T05:26:29;1.90;;;1.80;;
10403;SDS011;5248;47.374;8.486;2022-11-20T05:28:56;2.23;;;1.90;;
10403;SDS011;5248;47.374;8.486;2022-11-20T05:31:24;3.60;;;2.00;;
10403;SDS011;5248;47.374;8.486;2022-11-20T05:33:51;2.53;;;2.03;;
10403;SDS011;5248;47.374;8.486;2022-11-20T05:36:18;2.20;;;2.10;;
10403;SDS011;5248;47.374;8.486;2022-11-20T05:38:47;3.50;;;2.30;;
10403;SDS011;5248;47.374;8.486;2022-11-20T05:41:15;2.17;;;2.07;;
10403;SDS011;5248;47.374;8.486;2022-11-20T05:43:44;3.00;;;2.20;;
10403;SDS011;5248;47.374;8.486;2022-11-20T05:46:12;2.23;;;2.03;;
10403;SDS011;5248;47.374;8.486;2022-11-20T05:48:44;2.17;;;2.07;;
10403;SDS011;5248;47.374;8.486;2022-11-20T05:51:12;2.37;;;2.17;;
10403;SDS011;5248;47.374;8.486;2022-11-20T05:53:40;2.00;;;1.90;;
10403;SDS011;5248;47.374;8.486;2022-11-20T05:56:08;2.67;;;2.10;;
10403;SDS011;5248;47.374;8.486;2022-11-20T05:58:36;2.10;;;2.00;;
10403;SDS011;5248;47.374;8.486;2022-11-20T06:01:04;2.90;;;2.63;;
10403;SDS011;5248;47.374;8.486;2022-11-20T06:03:32;2.23;;;2.00;;
10403;SDS011;5248;47.374;8.486;2022-11-20T06:06:00;4.13;;;2.27;;
10403;SDS011;5248;47.374;8.486;2022-11-20T06:08:27;2.33;;;2.10;;
10403;SDS011;5248;47.374;8.486;2022-11-20T06:10:55;2.57;;;2.03;;
10403;SDS011;5248;47.374;8.486;2022-11-20T06:13:23;2.30;;;2.10;;
10403;SDS011;5248;47.374;8.486;2022-11-20T06:15:50;2.20;;;2.10;;
10403;SDS011;5248;47.374;8.486;2022-11-20T06:18:19;2.67;;;2.47;;
10403;SDS011;5248;47.374;8.486;2022-11-20T06:20:48;2.03;;;1.93;;
10403;SDS011;5248;47.374;8.486;2022-11-20T06:23:16;2.33;;;2.13;;
10403;SDS011;5248;47.374;8.486;2022-11-20T06:25:45;3.53;;;2.10;;
10403;SDS011;5248;47.374;8.486;2022-11-20T06:28:12;2.37;;;2.17;;
10403;SDS011;5248;47.374;8.486;2022-11-20T06:30:44;2.23;;;2.13;;
10403;SDS011;5248;47.374;8.486;2022-11-20T06:33:11;2.53;;;2.33;;
10403;SDS011;5248;47.374;8.486;2022-11-20T06:35:38;2.67;;;2.47;;
10403;SDS011;5248;47.374;8.486;2022-11-20T06:38:04;2.50;;;2.30;;
10403;SDS011;5248;47.374;8.486;2022-11-20T06:40:32;2.77;;;2.57;;
10403;SDS011;5248;47.374;8.486;2022-11-20T06:42:59;4.03;;;2.43;;
10403;SDS011;5248;47.374;8.486;2022-11-20T06:45:26;2.50;;;2.30;;
10403;SDS011;5248;47.374;8.486;2022-11-20T06:47:56;3.23;;;2.43;;
10403;SDS011;5248;47.374;8.486;2022-11-20T06:50:23;2.53;;;2.33;;
10403;SDS011;5248;47.374;8.486;2022-11-20T06:52:50;2.37;;;2.23;;
10403;SDS011;5248;47.374;8.486;2022-11-20T06:55:17;3.10;;;2.10;;
10403;SDS011;5248;47.374;8.486;2022-11-20T06:57:45;3.10;;;2.13;;
10403;SDS011;5248;47.374;8.486;2022-11-20T07:00:13;5.10;;;2.43;;
10403;SDS011;5248;47.374;8.486;2022-11-20T07:02:40;3.30;;;2.10;;
10403;SDS011;5248;47.374;8.486;2022-11-20T07:05:07;2.57;;;2.20;;
10403;SDS011;5248;47.374;8.486;2022-11-20T07:07:35;2.57;;;2.30;;
10403;SDS011;5248;47.374;8.486;2022-11-20T07:10:03;2.50;;;2.30;;
10403;SDS011;5248;47.374;8.486;2022-11-20T07:12:30;2.10;;;1.93;;
10403;SDS011;5248;47.374;8.486;2022-11-20T07:14:58;2.40;;;2.20;;
10403;SDS011;5248;47.374;8.486;2022-11-20T07:17:25;2.50;;;2.30;;
10403;SDS011;5248;47.374;8.486;2022-11-20T07:19:52;2.60;;;2.40;;
10403;SDS011;5248;47.374;8.486;2022-11-20T07:22:19;2.20;;;2.10;;
10403;SDS011;5248;47.374;8.486;2022-11-20T07:24:46;2.10;;;2.00;;
10403;SDS011;5248;47.374;8.486;2022-11-20T07:27:14;2.00;;;1.90;;
10403;SDS011;5248;47.374;8.486;2022-11-20T07:29:41;2.10;;;1.90;;
10403;SDS011;5248;47.374;8.486;2022-11-20T07:32:09;2.87;;;2.67;;
10403;SDS011;5248;47.374;8.486;2022-11-20T07:34:36;2.80;;;2.30;;
10403;SDS011;5248;47.374;8.486;2022-11-20T07:37:03;2.53;;;2.10;;
10403;SDS011;5248;47.374;8.486;2022-11-20T07:39:34;2.77;;;2.20;;
10403;SDS011;5248;47.374;8.486;2022-11-20T07:42:02;1.97;;;1.87;;
10403;SDS011;5248;47.374;8.486;2022-11-20T07:44:29;2.47;;;2.10;;
10403;SDS011;5248;47.374;8.486;2022-11-20T07:46:56;2.00;;;1.80;;
10403;SDS011;5248;47.374;8.486;2022-11-20T07:49:24;2.63;;;2.00;;
10403;SDS011;5248;47.374;8.486;2022-11-20T07:51:51;2.10;;;1.93;;
10403;SDS011;5248;47.374;8.486;2022-11-20T07:54:19;1.90;;;1.80;;
10403;SDS011;5248;47.374;8.486;2022-11-20T07:56:46;2.10;;;1.90;;
10403;SDS011;5248;47.374;8.486;2022-11-20T07:59:13;2.43;;;2.00;;
10403;SDS011;5248;47.374;8.486;2022-11-20T08:01:40;2.50;;;1.80;;
10403;SDS011;5248;47.374;8.486;2022-11-20T08:04:07;1.87;;;1.77;;
10403;SDS011;5248;47.374;8.486;2022-11-20T08:06:35;2.30;;;2.10;;
10403;SDS011;5248;47.374;8.486;2022-11-20T08:09:02;2.10;;;2.00;;
10403;SDS011;5248;47.374;8.486;2022-11-20T08:11:29;2.67;;;2.10;;
10403;SDS011;5248;47.374;8.486;2022-11-20T08:14:13;1.80;;;1.70;;
10403;SDS011;5248;47.374;8.486;2022-11-20T08:16:41;2.67;;;2.47;;
10403;SDS011;5248;47.374;8.486;2022-11-20T08:19:08;1.70;;;1.60;;
10403;SDS011;5248;47.374;8.486;2022-11-20T08:21:36;1.73;;;1.63;;
10403;SDS011;5248;47.374;8.486;2022-11-20T08:24:04;1.70;;;1.60;;
10403;SDS011;5248;47.374;8.486;2022-11-20T08:26:31;1.87;;;1.60;;
10403;SDS011;5248;47.374;8.486;2022-11-20T08:29:00;1.83;;;1.63;;
10403;SDS011;5248;47.374;8.486;2022-11-20T08:31:29;1.70;;;1.60;;
10403;SDS011;5248;47.374;8.486;2022-11-20T08:33:56;1.80;;;1.70;;
10403;SDS011;5248;47.374;8.486;2022-11-20T08:36:25;1.90;;;1.63;;
10403;SDS011;5248;47.374;8.486;2022-11-20T08:38:53;2.13;;;1.83;;
10403;SDS011;5248;47.374;8.486;2022-11-20T08:41:21;1.80;;;1.40;;
10403;SDS011;5248;47.374;8.486;2022-11-20T08:43:52;1.57;;;1.47;;
10403;SDS011;5248;47.374;8.486;2022-11-20T08:46:20;1.93;;;1.83;;
10403;SDS011;5248;47.374;8.486;2022-11-20T08:48:48;1.60;;;1.50;;
10403;SDS011;5248;47.374;8.486;2022-11-20T08:51:15;2.27;;;1.50;;
10403;SDS011;5248;47.374;8.486;2022-11-20T08:53:42;2.00;;;1.60;;
10403;SDS011;5248;47.374;8.486;2022-11-20T08:56:10;2.10;;;1.47;;
10403;SDS011;5248;47.374;8.486;2022-11-20T08:58:37;1.97;;;1.33;;
10403;SDS011;5248;47.374;8.486;2022-11-20T09:01:05;1.20;;;1.20;;
10403;SDS011;5248;47.374;8.486;2022-11-20T09:03:31;1.50;;;1.40;;
10403;SDS011;5248;47.374;8.486;2022-11-20T09:06:01;1.30;;;1.20;;
10403;SDS011;5248;47.374;8.486;2022-11-20T09:08:30;1.30;;;0.93;;
10403;SDS011;5248;47.374;8.486;2022-11-20T09:10:57;1.30;;;1.20;;
10403;SDS011;5248;47.374;8.486;2022-11-20T09:13:27;1.10;;;1.10;;
10403;SDS011;5248;47.374;8.486;2022-11-20T09:15:55;1.63;;;1.30;;
10403;SDS011;5248;47.374;8.486;2022-11-20T09:18:22;1.47;;;1.00;;
10403;SDS011;5248;47.374;8.486;2022-11-20T09:20:49;1.43;;;1.20;;
10403;SDS011;5248;47.374;8.486;2022-11-20T09:23:17;0.93;;;0.93;;
10403;SDS011;5248;47.374;8.486;2022-11-20T09:25:43;1.50;;;1.40;;
10403;SDS011;5248;47.374;8.486;2022-11-20T09:28:10;1.00;;;1.00;;
10403;SDS011;5248;47.374;8.486;2022-11-20T09:30:38;1.23;;;1.23;;
10403;SDS011;5248;47.374;8.486;2022-11-20T09:33:07;1.40;;;1.30;;
10403;SDS011;5248;47.374;8.486;2022-11-20T09:35:34;1.43;;;1.33;;
10403;SDS011;5248;47.374;8.486;2022-11-20T09:38:04;1.70;;;1.30;;
10403;SDS011;5248;47.374;8.486;2022-11-20T09:40:32;1.53;;;1.40;;
10403;SDS011;5248;47.374;8.486;2022-11-20T09:43:01;1.17;;;1.13;;
10403;SDS011;5248;47.374;8.486;2022-11-20T09:45:36;1.10;;;1.00;;
10403;SDS011;5248;47.374;8.486;2022-11-20T09:48:14;1.60;;;1.50;;
10403;SDS011;5248;47.374;8.486;2022-11-20T09:50:49;1.33;;;1.10;;
10403;SDS011;5248;47.374;8.486;2022-11-20T09:53:23;1.87;;;1.50;;
10403;SDS011;5248;47.374;8.486;2022-11-20T09:55:54;1.70;;;1.60;;
10403;SDS011;5248;47.374;8.486;2022-11-20T09:58:25;1.57;;;1.47;;
10403;SDS011;5248;47.374;8.486;2022-11-20T10:00:59;2.00;;;1.70;;
10403;SDS011;5248;47.374;8.486;2022-11-20T10:03:32;1.27;;;1.17;;
10403;SDS011;5248;47.374;8.486;2022-11-20T10:06:03;1.60;;;1.40;;
10403;SDS011;5248;47.374;8.486;2022-11-20T10:08:35;2.33;;;1.50;;
10403;SDS011;5248;47.374;8.486;2022-11-20T10:11:07;1.63;;;1.53;;
10403;SDS011;5248;47.374;8.486;2022-11-20T10:13:39;1.57;;;1.47;;
10403;SDS011;5248;47.374;8.486;2022-11-20T10:16:15;1.43;;;1.17;;
10403;SDS011;5248;47.374;8.486;2022-11-20T10:18:55;1.70;;;1.47;;
10403;SDS011;5248;47.374;8.486;2022-11-20T10:21:30;1.57;;;1.47;;
10403;SDS011;5248;47.374;8.486;2022-11-20T10:24:12;2.40;;;2.30;;
10403;SDS011;5248;47.374;8.486;2022-11-20T10:27:00;2.20;;;2.00;;
10403;SDS011;5248;47.374;8.486;2022-11-20T10:29:33;1.83;;;1.40;;
10403;SDS011;5248;47.374;8.486;2022-11-20T10:32:03;1.77;;;1.30;;
10403;SDS011;5248;47.374;8.486;2022-11-20T10:34:33;1.57;;;1.47;;
10403;SDS011;5248;47.374;8.486;2022-11-20T10:37:05;1.90;;;1.80;;
10403;SDS011;5248;47.374;8.486;2022-11-20T10:39:38;3.07;;;1.43;;
10403;SDS011;5248;47.374;8.486;2022-11-20T10:42:08;1.60;;;1.50;;
10403;SDS011;5248;47.374;8.486;2022-11-20T10:44:37;2.87;;;1.70;;
10403;SDS011;5248;47.374;8.486;2022-11-20T10:47:25;2.13;;;1.60;;
10403;SDS011;5248;47.374;8.486;2022-11-20T10:49:54;1.80;;;1.70;;
10403;SDS011;5248;47.374;8.486;2022-11-20T10:52:24;2.50;;;1.17;;
10403;SDS011;5248;47.374;8.486;2022-11-20T10:54:56;1.87;;;1.40;;
10403;SDS011;5248;47.374;8.486;2022-11-20T10:57:31;1.50;;;1.40;;
10403;SDS011;5248;47.374;8.486;2022-11-20T11:00:09;2.30;;;1.30;;
10403;SDS011;5248;47.374;8.486;2022-11-20T11:02:41;1.83;;;1.47;;
10403;SDS011;5248;47.374;8.486;2022-11-20T11:05:13;1.27;;;1.20;;
10403;SDS011;5248;47.374;8.486;2022-11-20T11:07:44;1.47;;;1.37;;
10403;SDS011;5248;47.374;8.486;2022-11-20T11:10:14;1.43;;;1.33;;
10403;SDS011;5248;47.374;8.486;2022-11-20T11:12:44;1.20;;;1.10;;
10403;SDS011;5248;47.374;8.486;2022-11-20T11:15:12;1.40;;;1.30;;
10403;SDS011;5248;47.374;8.486;2022-11-20T11:17:47;1.47;;;1.33;;
10403;SDS011;5248;47.374;8.486;2022-11-20T11:20:16;2.50;;;1.40;;
10403;SDS011;5248;47.374;8.486;2022-11-20T11:22:44;1.67;;;1.30;;
10403;SDS011;5248;47.374;8.486;2022-11-20T11:25:18;1.33;;;1.10;;
10403;SDS011;5248;47.374;8.486;2022-11-20T11:27:50;0.90;;;0.90;;
10403;SDS011;5248;47.374;8.486;2022-11-20T11:30:18;1.67;;;1.10;;
10403;SDS011;5248;47.374;8.486;2022-11-20T11:32:47;1.70;;;1.60;;
10403;SDS011;5248;47.374;8.486;2022-11-20T11:35:22;1.00;;;1.00;;
10403;SDS011;5248;47.374;8.486;2022-11-20T11:37:50;1.07;;;0.90;;
10403;SDS011;5248;47.374;8.486;2022-11-20T11:40:19;1.43;;;1.10;;
10403;SDS011;5248;47.374;8.486;2022-11-20T11:42:49;1.50;;;0.93;;
10403;SDS011;5248;47.374;8.486;2022-11-20T11:45:18;1.33;;;1.00;;
10403;SDS011;5248;47.374;8.486;2022-11-20T11:47:45;3.00;;;2.27;;
10403;SDS011;5248;47.374;8.486;2022-11-20T11:50:18;2.67;;;1.67;;
10403;SDS011;5248;47.374;8.486;2022-11-20T11:52:49;1.20;;;1.10;;
10403;SDS011;5248;47.374;8.486;2022-11-20T11:55:24;0.87;;;0.87;;
10403;SDS011;5248;47.374;8.486;2022-11-20T11:57:56;0.77;;;0.77;;
10403;SDS011;5248;47.374;8.486;2022-11-20T12:00:31;1.23;;;1.17;;
10403;SDS011;5248;47.374;8.486;2022-11-20T12:03:00;1.00;;;0.80;;
10403;SDS011;5248;47.374;8.486;2022-11-20T12:05:36;1.33;;;1.00;;
10403;SDS011;5248;47.374;8.486;2022-11-20T12:08:06;1.10;;;0.93;;
10403;SDS011;5248;47.374;8.486;2022-11-20T12:10:41;2.13;;;0.90;;
10403;SDS011;5248;47.374;8.486;2022-11-20T12:13:15;1.27;;;0.97;;
10403;SDS011;5248;47.374;8.486;2022-11-20T12:15:47;1.10;;;1.10;;
10403;SDS011;5248;47.374;8.486;2022-11-20T12:18:14;0.90;;;0.90;;
10403;SDS011;5248;47.374;8.486;2022-11-20T12:20:45;2.80;;;1.40;;
10403;SDS011;5248;47.374;8.486;2022-11-20T12:23:19;3.50;;;1.30;;
10403;SDS011;5248;47.374;8.486;2022-11-20T12:25:51;1.27;;;1.17;;
10403;SDS011;5248;47.374;8.486;2022-11-20T12:28:23;1.10;;;0.97;;
10403;SDS011;5248;47.374;8.486;2022-11-20T12:31:11;1.27;;;1.17;;
10403;SDS011;5248;47.374;8.486;2022-11-20T12:33:50;1.63;;;1.03;;
10403;SDS011;5248;47.374;8.486;2022-11-20T12:36:29;1.37;;;1.30;;
10403;SDS011;5248;47.374;8.486;2022-11-20T12:39:02;1.77;;;1.20;;
10403;SDS011;5248;47.374;8.486;2022-11-20T12:41:58;1.53;;;1.13;;
10403;SDS011;5248;47.374;8.486;2022-11-20T12:44:58;1.40;;;1.30;;
10403;SDS011;5248;47.374;8.486;2022-11-20T12:50:32;1.17;;;1.07;;
10403;SDS011;5248;47.374;8.486;2022-11-20T12:53:07;1.67;;;1.43;;
10403;SDS011;5248;47.374;8.486;2022-11-20T12:55:42;1.33;;;1.30;;
10403;SDS011;5248;47.374;8.486;2022-11-20T12:58:16;1.27;;;1.17;;
10403;SDS011;5248;47.374;8.486;2022-11-20T13:00:58;1.70;;;1.60;;
10403;SDS011;5248;47.374;8.486;2022-11-20T13:03:33;1.40;;;1.30;;
10403;SDS011;5248;47.374;8.486;2022-11-20T13:06:05;1.43;;;1.30;;
10403;SDS011;5248;47.374;8.486;2022-11-20T13:08:40;1.30;;;1.20;;
10403;SDS011;5248;47.374;8.486;2022-11-20T13:11:09;2.83;;;1.30;;
10403;SDS011;5248;47.374;8.486;2022-11-20T13:13:43;1.53;;;1.20;;
10403;SDS011;5248;47.374;8.486;2022-11-20T13:16:15;0.90;;;0.90;;
10403;SDS011;5248;47.374;8.486;2022-11-20T13:18:46;1.20;;;1.10;;
10403;SDS011;5248;47.374;8.486;2022-11-20T13:21:16;1.20;;;1.20;;
10403;SDS011;5248;47.374;8.486;2022-11-20T13:23:46;1.53;;;1.43;;
10403;SDS011;5248;47.374;8.486;2022-11-20T13:26:17;0.90;;;0.90;;
10403;SDS011;5248;47.374;8.486;2022-11-20T13:28:46;0.90;;;0.80;;
10403;SDS011;5248;47.374;8.486;2022-11-20T13:31:24;0.93;;;0.80;;
10403;SDS011;5248;47.374;8.486;2022-11-20T13:33:56;0.67;;;0.67;;
10403;SDS011;5248;47.374;8.486;2022-11-20T13:36:24;0.70;;;0.70;;
10403;SDS011;5248;47.374;8.486;2022-11-20T13:38:54;1.17;;;0.90;;
10403;SDS011;5248;47.374;8.486;2022-11-20T13:41:25;1.07;;;0.80;;
10403;SDS011;5248;47.374;8.486;2022-11-20T13:43:59;1.40;;;1.30;;
10403;SDS011;5248;47.374;8.486;2022-11-20T13:46:39;1.63;;;1.53;;
10403;SDS011;5248;47.374;8.486;2022-11-20T13:49:10;0.80;;;0.80;;
10403;SDS011;5248;47.374;8.486;2022-11-20T13:51:43;1.07;;;0.87;;
10403;SDS011;5248;47.374;8.486;2022-11-20T13:54:25;0.83;;;0.70;;
10403;SDS011;5248;47.374;8.486;2022-11-20T13:57:05;0.90;;;0.90;;
10403;SDS011;5248;47.374;8.486;2022-11-20T13:59:40;0.57;;;0.57;;
10403;SDS011;5248;47.374;8.486;2022-11-20T14:02:13;1.63;;;0.63;;
10403;SDS011;5248;47.374;8.486;2022-11-20T14:04:42;0.83;;;0.83;;
10403;SDS011;5248;47.374;8.486;2022-11-20T14:07:09;2.97;;;2.53;;
10403;SDS011;5248;47.374;8.486;2022-11-20T14:09:38;0.93;;;0.93;;
10403;SDS011;5248;47.374;8.486;2022-11-20T14:12:17;1.20;;;0.83;;
10403;SDS011;5248;47.374;8.486;2022-11-20T14:14:49;1.03;;;0.67;;
10403;SDS011;5248;47.374;8.486;2022-11-20T14:17:18;0.80;;;0.70;;
10403;SDS011;5248;47.374;8.486;2022-11-20T14:19:46;1.10;;;0.90;;
10403;SDS011;5248;47.374;8.486;2022-11-20T14:22:17;0.73;;;0.73;;
10403;SDS011;5248;47.374;8.486;2022-11-20T14:24:47;2.00;;;0.90;;
10403;SDS011;5248;47.374;8.486;2022-11-20T14:27:26;0.90;;;0.40;;
10403;SDS011;5248;47.374;8.486;2022-11-20T14:29:53;1.53;;;1.00;;
10403;SDS011;5248;47.374;8.486;2022-11-20T14:32:28;0.70;;;0.70;;
10403;SDS011;5248;47.374;8.486;2022-11-20T14:34:55;0.77;;;0.77;;
10403;SDS011;5248;47.374;8.486;2022-11-20T14:37:27;0.63;;;0.63;;
10403;SDS011;5248;47.374;8.486;2022-11-20T14:39:59;0.80;;;0.60;;
10403;SDS011;5248;47.374;8.486;2022-11-20T14:42:26;1.00;;;0.70;;
10403;SDS011;5248;47.374;8.486;2022-11-20T14:44:56;0.70;;;0.70;;
10403;SDS011;5248;47.374;8.486;2022-11-20T14:47:24;1.70;;;1.60;;
10403;SDS011;5248;47.374;8.486;2022-11-20T14:49:52;2.10;;;1.90;;
10403;SDS011;5248;47.374;8.486;2022-11-20T14:52:20;2.57;;;2.37;;
10403;SDS011;5248;47.374;8.486;2022-11-20T14:54:48;1.20;;;1.10;;
10403;SDS011;5248;47.374;8.486;2022-11-20T14:57:31;1.00;;;0.90;;
10403;SDS011;5248;47.374;8.486;2022-11-20T15:00:07;1.57;;;0.80;;
10403;SDS011;5248;47.374;8.486;2022-11-20T15:02:44;1.10;;;1.00;;
10403;SDS011;5248;47.374;8.486;2022-11-20T15:05:13;0.80;;;0.80;;
10403;SDS011;5248;47.374;8.486;2022-11-20T15:07:41;1.77;;;0.97;;
10403;SDS011;5248;47.374;8.486;2022-11-20T15:10:11;1.00;;;0.90;;
10403;SDS011;5248;47.374;8.486;2022-11-20T15:12:45;0.80;;;0.80;;
10403;SDS011;5248;47.374;8.486;2022-11-20T15:15:14;1.17;;;0.77;;
10403;SDS011;5248;47.374;8.486;2022-11-20T15:17:44;3.40;;;0.80;;